Time;durP1;ratioP1;P1;durP2;ratioP2;P2;SDS_P1;SDS_P2;PMS_P1;PMS_P2;Temp;Humidity;BMP_temperature;BMP_pressure;BME280_temperature;BME280_humidity;BME280_pressure;Samples;Min_cycle;Max_cycle;Signal;HPM_P1;HPM_P2
2021/12/07 00:00:54;;;;;;;14.10;7.07;;;4.50;99.90;;;;;;5012058;28;20029;-77
2021/12/07 00:03:20;;;;;;;12.50;7.00;;;4.50;99.90;;;;;;5013823;28;20385;-76
2021/12/07 00:05:47;;;;;;;11.73;6.30;;;4.60;99.90;;;;;;4992548;28;20116;-77
2021/12/07 00:08:13;;;;;;;11.95;6.55;;;4.60;99.90;;;;;;4992729;28;20029;-78
2021/12/07 00:10:40;;;;;;;12.85;6.72;;;4.60;99.90;;;;;;4992365;28;20030;-77
2021/12/07 00:13:06;;;;;;;10.45;5.93;;;4.60;99.90;;;;;;4992422;28;20030;-76
2021/12/07 00:15:33;;;;;;;11.23;6.75;;;4.60;99.90;;;;;;4993569;28;20022;-77
2021/12/07 00:17:59;;;;;;;9.52;5.47;;;4.60;99.90;;;;;;4992595;28;20026;-78
2021/12/07 00:20:25;;;;;;;10.93;6.18;;;4.60;99.90;;;;;;4994378;28;20037;-76
2021/12/07 00:22:55;;;;;;;10.65;6.00;;;4.60;99.90;;;;;;4993531;28;20382;-77
2021/12/07 00:25:21;;;;;;;11.38;6.55;;;4.60;99.90;;;;;;4994102;28;20398;-78
2021/12/07 00:27:47;;;;;;;11.95;6.72;;;4.60;99.90;;;;;;5010686;28;20514;-78
2021/12/07 00:30:14;;;;;;;9.35;5.95;;;4.60;99.90;;;;;;5013306;28;20068;-77
2021/12/07 00:32:46;;;;;;;13.40;6.45;;;4.60;99.90;;;;;;5012995;28;20029;-77
2021/12/07 00:35:34;;;;;;;12.98;7.13;;;4.50;99.90;;;;;;5012733;28;20018;-77
2021/12/07 00:38:05;;;;;;;11.30;6.80;;;4.50;99.90;;;;;;5012992;28;20478;-77
2021/12/07 00:40:32;;;;;;;10.45;6.30;;;4.50;99.90;;;;;;5013326;28;20450;-77
2021/12/07 00:42:57;;;;;;;10.40;6.32;;;4.50;99.90;;;;;;5013039;28;20052;-77
2021/12/07 00:45:25;;;;;;;14.57;7.22;;;4.50;99.90;;;;;;5013245;28;20544;-77
2021/12/07 00:47:53;;;;;;;14.32;6.90;;;4.40;99.90;;;;;;4993999;28;20057;-77
2021/12/07 00:50:23;;;;;;;13.50;6.50;;;4.40;99.90;;;;;;5013331;28;20421;-76
2021/12/07 00:52:49;;;;;;;10.20;5.60;;;4.50;99.90;;;;;;4991527;28;20046;-77
2021/12/07 00:55:20;;;;;;;8.27;5.75;;;4.50;99.90;;;;;;4994497;28;20109;-77
2021/12/07 00:57:45;;;;;;;10.05;5.60;;;4.50;99.90;;;;;;4994689;28;20501;-78
2021/12/07 01:00:14;;;;;;;10.02;5.57;;;4.50;99.90;;;;;;4993420;28;20054;-77
2021/12/07 01:02:40;;;;;;;9.02;5.82;;;4.60;99.90;;;;;;4992791;28;20022;-76
2021/12/07 01:05:18;;;;;;;10.07;5.80;;;4.50;99.90;;;;;;4994207;28;20058;-77
2021/12/07 01:26:51;;;;;;;10.65;5.68;;;4.30;99.90;;;;;;4992683;28;20034;-76
2021/12/07 01:29:20;;;;;;;11.15;5.93;;;4.20;99.90;;;;;;5002056;28;20105;-77
2021/12/07 01:32:46;;;;;;;13.57;5.45;;;4.20;99.90;;;;;;4973673;28;20154;-75
2021/12/07 01:49:39;;;;;;;7.78;5.13;;;4.10;99.90;;;;;;5009947;28;20014;-78
2021/12/07 01:51:08;;;;;;;8.82;4.82;;;4.00;99.90;;;;;;4991191;28;20038;-79
2021/12/07 02:01:52;;;;;;;8.45;4.38;;;4.10;99.90;;;;;;4992205;28;20088;-78
2021/12/07 02:04:17;;;;;;;7.60;4.88;;;4.10;99.90;;;;;;4991011;28;20022;-77
2021/12/07 02:06:43;;;;;;;8.00;4.78;;;4.00;99.90;;;;;;4990723;28;20367;-78
2021/12/07 02:09:11;;;;;;;8.63;4.35;;;4.10;99.90;;;;;;4989688;28;20643;-77
2021/12/07 02:11:40;;;;;;;7.43;4.60;;;4.20;99.90;;;;;;5008630;28;20041;-77
2021/12/07 02:14:16;;;;;;;5.82;3.90;;;4.40;99.90;;;;;;4974350;28;20019;-77
2021/12/07 02:16:47;;;;;;;9.35;4.95;;;4.40;99.90;;;;;;4975634;28;20049;-77
2021/12/07 02:19:13;;;;;;;7.68;4.95;;;4.40;99.90;;;;;;4992614;28;20137;-78
2021/12/07 02:21:39;;;;;;;7.80;4.43;;;4.40;99.90;;;;;;4993817;28;20026;-78
2021/12/07 02:24:05;;;;;;;8.18;4.85;;;4.40;99.90;;;;;;4992611;28;20059;-78
2021/12/07 02:26:30;;;;;;;8.73;4.78;;;4.30;99.90;;;;;;4992706;28;20026;-77
2021/12/07 02:28:57;;;;;;;8.10;4.60;;;4.30;99.90;;;;;;4976217;28;20026;-78
2021/12/07 02:31:23;;;;;;;7.53;4.63;;;4.30;99.90;;;;;;4999316;28;20037;-78
2021/12/07 02:33:49;;;;;;;5.57;4.00;;;4.20;99.90;;;;;;5001188;28;20510;-77
2021/12/07 02:36:15;;;;;;;5.93;4.28;;;4.20;99.90;;;;;;5001922;28;20030;-78
2021/12/07 02:38:40;;;;;;;6.68;4.28;;;4.30;99.90;;;;;;5015809;28;20051;-77
2021/12/07 02:41:08;;;;;;;7.20;4.05;;;4.30;99.90;;;;;;5009175;28;20053;-78
2021/12/07 02:43:34;;;;;;;12.25;4.28;;;4.30;99.90;;;;;;4996811;28;20339;-78
2021/12/07 02:46:00;;;;;;;7.15;4.40;;;4.40;99.90;;;;;;4978293;28;20042;-77
2021/12/07 02:48:26;;;;;;;10.50;4.10;;;4.50;99.90;;;;;;4995645;28;20022;-77
2021/12/07 02:50:53;;;;;;;7.45;4.10;;;4.50;99.90;;;;;;4995766;28;20030;-77
2021/12/07 02:53:22;;;;;;;5.47;3.47;;;4.60;99.90;;;;;;5012812;28;20050;-78
2021/12/07 02:55:50;;;;;;;6.70;3.72;;;4.60;99.90;;;;;;5013476;28;20482;-77
2021/12/07 02:58:16;;;;;;;6.40;3.85;;;4.60;99.90;;;;;;5008950;28;20470;-76
2021/12/07 03:00:49;;;;;;;5.25;3.38;;;4.70;99.90;;;;;;4995745;28;20050;-78
2021/12/07 03:03:16;;;;;;;6.90;3.85;;;4.80;99.90;;;;;;4995881;28;20504;-78
2021/12/07 03:06:03;;;;;;;7.60;3.85;;;4.80;99.90;;;;;;4995635;28;20088;-77
2021/12/07 03:27:22;;;;;;;5.47;3.35;;;4.70;99.90;;;;;;5009020;28;20474;-77
2021/12/07 03:29:48;;;;;;;6.63;3.58;;;4.70;99.90;;;;;;5014270;28;20030;-78
2021/12/07 03:32:14;;;;;;;7.40;4.85;;;4.70;99.90;;;;;;5014081;28;20477;-77
2021/12/07 03:34:39;;;;;;;8.02;4.20;;;4.60;99.90;;;;;;5013687;28;20037;-78
2021/12/07 03:37:05;;;;;;;7.00;4.18;;;4.60;99.90;;;;;;5012179;28;20036;-75
2021/12/07 03:39:31;;;;;;;5.60;4.10;;;4.50;99.90;;;;;;4973422;28;20117;-77
2021/12/07 03:41:57;;;;;;;6.20;4.10;;;4.50;99.90;;;;;;4972619;28;20058;-78
2021/12/07 03:44:22;;;;;;;5.07;3.22;;;4.50;99.90;;;;;;4993137;28;20034;-77
2021/12/07 03:46:48;;;;;;;3.95;3.15;;;4.60;99.90;;;;;;4996399;28;20116;-77
2021/12/07 03:49:14;;;;;;;4.50;2.97;;;4.70;99.90;;;;;;5012419;28;20022;-77
2021/12/07 03:51:40;;;;;;;4.78;2.72;;;4.80;99.90;;;;;;5013830;28;20654;-77
2021/12/07 03:54:06;;;;;;;7.47;3.40;;;4.90;99.90;;;;;;5014174;28;20038;-78
2021/12/07 03:56:33;;;;;;;4.35;3.08;;;4.90;99.90;;;;;;5010139;28;20080;-77
2021/12/07 03:58:59;;;;;;;5.25;2.95;;;4.90;99.90;;;;;;5013570;28;20393;-77
2021/12/07 04:01:25;;;;;;;5.80;3.35;;;4.90;99.90;;;;;;5013500;28;20022;-77
2021/12/07 04:03:53;;;;;;;4.67;3.23;;;4.90;99.90;;;;;;5014165;28;20385;-78
2021/12/07 04:06:20;;;;;;;4.13;3.10;;;5.00;99.90;;;;;;5013428;28;20091;-77
2021/12/07 04:08:46;;;;;;;5.93;2.92;;;5.00;99.90;;;;;;4999955;28;20026;-77
2021/12/07 04:11:14;;;;;;;4.82;3.10;;;5.00;99.90;;;;;;4994385;28;20030;-77
2021/12/07 04:13:44;;;;;;;7.20;2.92;;;4.90;99.90;;;;;;4995845;28;20463;-78
2021/12/07 04:16:11;;;;;;;10.10;2.80;;;4.90;99.90;;;;;;4994083;28;20031;-77
2021/12/07 04:18:37;;;;;;;5.20;2.70;;;4.80;99.90;;;;;;4993789;28;20383;-78
2021/12/07 04:21:03;;;;;;;3.40;2.90;;;4.70;99.90;;;;;;4994670;28;20014;-78
2021/12/07 04:23:34;;;;;;;4.40;2.55;;;4.70;99.90;;;;;;4993638;28;20026;-77
2021/12/07 04:26:02;;;;;;;3.42;2.78;;;4.70;99.90;;;;;;4993867;28;20056;-78
2021/12/07 04:28:27;;;;;;;6.70;3.75;;;4.70;99.90;;;;;;5004608;28;20545;-77
2021/12/07 04:30:53;;;;;;;7.30;3.97;;;4.50;99.90;;;;;;5013520;28;20038;-77
2021/12/07 04:33:19;;;;;;;9.00;4.78;;;4.50;99.90;;;;;;5013075;28;20030;-77
2021/12/07 04:35:48;;;;;;;10.95;5.10;;;4.30;99.90;;;;;;5013199;28;20040;-78
2021/12/07 04:38:15;;;;;;;6.95;4.80;;;4.30;99.90;;;;;;5011858;28;20076;-78
2021/12/07 04:40:42;;;;;;;5.78;4.30;;;4.20;99.90;;;;;;5013405;28;20032;-78
2021/12/07 04:43:08;;;;;;;6.10;4.22;;;4.20;99.90;;;;;;5010993;28;20030;-77
2021/12/07 04:59:02;;;;;;;6.88;4.38;;;4.10;99.90;;;;;;5011325;28;20124;-78
2021/12/07 05:01:28;;;;;;;8.52;4.53;;;4.10;99.90;;;;;;5012533;28;20431;-78
2021/12/07 05:03:57;;;;;;;11.57;4.20;;;4.10;99.90;;;;;;5012452;28;20109;-78
2021/12/07 05:06:27;;;;;;;3.95;3.15;;;4.20;99.90;;;;;;5011602;28;20536;-77
2021/12/07 05:08:59;;;;;;;4.50;3.25;;;4.10;99.90;;;;;;5011060;28;20021;-78
2021/12/07 05:11:33;;;;;;;4.38;3.60;;;4.10;99.90;;;;;;5010125;28;20034;-78
2021/12/07 05:16:53;;;;;;;4.63;3.05;;;4.30;99.90;;;;;;5011132;28;20488;-75
2021/12/07 05:25:25;;;;;;;6.95;4.13;;;4.40;99.90;;;;;;5011857;28;20041;-78
2021/12/07 05:38:42;;;;;;;9.15;3.80;;;4.60;99.90;;;;;;4993141;28;20085;-77
2021/12/07 05:41:08;;;;;;;5.55;3.45;;;4.60;99.90;;;;;;4993247;28;20434;-77
2021/12/07 05:43:35;;;;;;;6.07;3.80;;;4.60;99.90;;;;;;4994100;28;20030;-77
2021/12/07 05:46:02;;;;;;;4.32;3.67;;;4.60;99.90;;;;;;4992613;28;20474;-77
2021/12/07 05:48:28;;;;;;;5.53;3.55;;;4.60;99.90;;;;;;4992218;28;20044;-75
2021/12/07 05:50:54;;;;;;;5.05;3.80;;;4.50;99.90;;;;;;4990390;28;20034;-78
2021/12/07 05:53:20;;;;;;;6.18;4.38;;;4.40;99.90;;;;;;4990750;28;20053;-77
2021/12/07 05:55:45;;;;;;;6.88;4.10;;;4.40;99.90;;;;;;4993322;28;20382;-77
2021/12/07 05:58:12;;;;;;;6.93;4.00;;;4.40;99.90;;;;;;4992615;28;20030;-78
2021/12/07 06:00:41;;;;;;;4.72;3.58;;;4.50;99.90;;;;;;4991694;28;20023;-78
2021/12/07 06:03:09;;;;;;;5.60;4.22;;;4.50;99.90;;;;;;4992889;28;20169;-78
2021/12/07 06:05:36;;;;;;;8.18;3.92;;;4.50;99.90;;;;;;4993865;28;20049;-79
2021/12/07 06:08:02;;;;;;;7.00;4.05;;;4.50;99.90;;;;;;4996175;28;20022;-78
2021/12/07 06:10:29;;;;;;;5.18;3.72;;;4.60;99.90;;;;;;4995580;28;20034;-78
2021/12/07 06:12:57;;;;;;;6.15;3.92;;;4.70;99.90;;;;;;4995645;28;20467;-77
2021/12/07 06:15:24;;;;;;;5.95;4.22;;;4.60;99.90;;;;;;4996955;28;20034;-74
2021/12/07 06:17:51;;;;;;;8.65;4.18;;;4.60;99.90;;;;;;4978775;28;20030;-77
2021/12/07 06:20:18;;;;;;;4.78;3.72;;;4.70;99.90;;;;;;4996334;28;20057;-76
2021/12/07 06:22:44;;;;;;;11.07;4.10;;;4.70;99.90;;;;;;4996261;28;20069;-78
2021/12/07 06:25:10;;;;;;;7.15;4.00;;;4.60;99.90;;;;;;4995976;28;20042;-78
2021/12/07 06:27:38;;;;;;;9.15;4.28;;;4.60;99.90;;;;;;4997309;28;20022;-78
2021/12/07 06:30:07;;;;;;;6.68;4.50;;;4.50;99.90;;;;;;4996266;28;20149;-77
2021/12/07 06:32:32;;;;;;;8.88;5.68;;;4.40;99.90;;;;;;5000248;28;20021;-78
2021/12/07 06:34:58;;;;;;;8.57;4.57;;;4.30;99.90;;;;;;5016569;28;20018;-77
2021/12/07 06:37:24;;;;;;;7.38;4.75;;;4.30;99.90;;;;;;5013506;28;20060;-79
2021/12/07 06:39:49;;;;;;;11.13;5.20;;;4.20;99.90;;;;;;5015063;28;20117;-78
2021/12/07 06:42:15;;;;;;;8.45;5.05;;;4.20;99.90;;;;;;5005247;28;20019;-77
2021/12/07 06:44:41;;;;;;;5.38;4.18;;;4.10;99.90;;;;;;4995462;28;20093;-77
2021/12/07 06:47:06;;;;;;;8.43;5.20;;;4.20;99.90;;;;;;4994984;28;20385;-75
2021/12/07 06:49:32;;;;;;;10.07;5.57;;;4.20;99.90;;;;;;4996222;28;20405;-77
2021/12/07 06:51:58;;;;;;;11.20;4.45;;;4.20;99.90;;;;;;4995832;28;20034;-76
2021/12/07 06:54:25;;;;;;;7.43;4.35;;;4.30;99.90;;;;;;4997142;28;20046;-78
2021/12/07 06:56:57;;;;;;;7.45;4.30;;;4.30;99.90;;;;;;4997031;28;20041;-76
2021/12/07 06:59:23;;;;;;;13.40;4.80;;;4.30;99.90;;;;;;4995011;28;20030;-78
2021/12/07 07:01:49;;;;;;;10.50;4.20;;;4.40;99.90;;;;;;4995031;28;20431;-78
2021/12/07 07:04:14;;;;;;;10.27;5.20;;;4.60;99.90;;;;;;4995217;28;20034;-78
2021/12/07 07:06:42;;;;;;;10.73;4.10;;;4.80;99.90;;;;;;4995176;28;20048;-77
2021/12/07 07:09:08;;;;;;;6.32;4.60;;;4.80;99.90;;;;;;4995563;28;20030;-77
2021/12/07 07:11:34;;;;;;;9.57;4.63;;;4.90;99.90;;;;;;4995849;28;20394;-78
2021/12/07 07:14:01;;;;;;;8.27;3.92;;;4.90;99.90;;;;;;4995819;28;20031;-78
2021/12/07 07:16:27;;;;;;;11.70;4.35;;;4.90;99.90;;;;;;4993828;28;20050;-77
2021/12/07 07:18:53;;;;;;;10.27;4.43;;;5.00;99.90;;;;;;4995109;28;20026;-77
2021/12/07 07:21:19;;;;;;;12.45;4.47;;;5.10;99.90;;;;;;4995482;28;20105;-77
2021/12/07 07:23:45;;;;;;;27.55;6.57;;;5.30;99.90;;;;;;4994215;28;20807;-77
2021/12/07 07:26:11;;;;;;;16.77;4.10;;;5.50;99.90;;;;;;5002221;28;20058;-78
2021/12/07 07:28:37;;;;;;;6.95;3.88;;;5.70;99.90;;;;;;4994876;28;20018;-76
2021/12/07 07:31:05;;;;;;;7.72;3.85;;;5.80;99.90;;;;;;4994624;28;20029;-77
2021/12/07 07:33:31;;;;;;;11.27;4.22;;;5.90;99.90;;;;;;4994935;28;20018;-76
2021/12/07 07:35:57;;;;;;;8.02;4.07;;;5.90;99.90;;;;;;4995034;28;20019;-76
2021/12/07 07:38:23;;;;;;;8.95;4.82;;;6.10;99.90;;;;;;4995038;28;20033;-76
2021/12/07 07:40:49;;;;;;;11.18;6.05;;;6.60;99.90;;;;;;4995109;28;20054;-78
2021/12/07 07:43:17;;;;;;;9.25;3.83;;;7.10;99.90;;;;;;4994576;28;20081;-78
2021/12/07 07:45:47;;;;;;;8.25;4.22;;;7.80;99.90;;;;;;4990876;28;20022;-79
2021/12/07 07:48:13;;;;;;;6.30;3.60;;;8.30;99.90;;;;;;4993640;28;20031;-78
2021/12/07 07:50:39;;;;;;;4.72;3.08;;;8.50;99.90;;;;;;4993746;28;20023;-79
2021/12/07 07:53:07;;;;;;;6.93;3.50;;;8.60;99.90;;;;;;4992882;28;20038;-78
2021/12/07 07:55:35;;;;;;;5.18;3.75;;;9.00;99.90;;;;;;4995974;28;20043;-78
2021/12/07 07:58:04;;;;;;;3.80;2.75;;;10.10;99.90;;;;;;4993941;28;20069;-79
2021/12/07 08:00:30;;;;;;;4.57;2.85;;;10.80;99.90;;;;;;4974228;28;20049;-80
2021/12/07 08:02:55;;;;;;;6.97;3.42;;;9.80;99.90;;;;;;4994013;28;20030;-79
2021/12/07 08:05:21;;;;;;;5.68;3.78;;;8.80;99.90;;;;;;4994092;28;20042;-79
2021/12/07 08:07:47;;;;;;;5.00;3.13;;;8.30;99.90;;;;;;4993053;28;20058;-79
2021/12/07 08:10:18;;;;;;;6.50;3.72;;;7.90;99.90;;;;;;4993483;28;20110;-79
2021/12/07 08:12:44;;;;;;;5.80;3.20;;;7.80;99.90;;;;;;4992914;28;20042;-79
2021/12/07 08:15:10;;;;;;;7.03;3.40;;;7.80;99.90;;;;;;4993312;28;20524;-79
2021/12/07 08:17:35;;;;;;;9.90;3.53;;;8.50;99.90;;;;;;4993409;28;20390;-78
2021/12/07 08:20:01;;;;;;;4.35;2.88;;;8.80;99.90;;;;;;4994486;28;20037;-78
2021/12/07 08:22:29;;;;;;;7.30;3.03;;;9.50;99.90;;;;;;4994311;28;20049;-78
2021/12/07 08:24:56;;;;;;;11.43;3.47;;;9.90;99.90;;;;;;4993337;28;20039;-77
2021/12/07 08:27:22;;;;;;;5.53;3.00;;;10.10;99.90;;;;;;4992959;28;20398;-77
2021/12/07 08:29:47;;;;;;;7.68;3.55;;;10.10;99.90;;;;;;4992184;28;20023;-77
2021/12/07 08:32:13;;;;;;;9.48;4.03;;;10.50;99.90;;;;;;4989032;28;20497;-78
2021/12/07 08:34:39;;;;;;;6.90;3.55;;;11.30;99.90;;;;;;4993959;28;20486;-77
2021/12/07 08:37:05;;;;;;;4.25;2.83;;;12.10;99.40;;;;;;4993203;28;20049;-78
2021/12/07 08:39:34;;;;;;;5.35;2.78;;;12.90;98.30;;;;;;4992662;28;20495;-78
2021/12/07 08:42:01;;;;;;;6.03;2.58;;;13.10;96.50;;;;;;4992997;28;20093;-76
2021/12/07 08:44:27;;;;;;;5.93;2.67;;;13.00;96.50;;;;;;4992753;28;20104;-77
2021/12/07 08:46:53;;;;;;;10.82;2.80;;;13.50;95.90;;;;;;4992653;28;20479;-78
2021/12/07 08:49:20;;;;;;;3.92;2.35;;;13.20;95.20;;;;;;4993107;28;20026;-78
2021/12/07 08:51:45;;;;;;;3.83;2.08;;;13.60;94.50;;;;;;4991743;28;20033;-77
2021/12/07 08:59:36;;;;;;;2.45;1.90;;;14.30;94.00;;;;;;4992488;28;20038;-77
2021/12/07 08:59:56;;;;;;;5.20;1.50;;;16.00;90.90;;;;;;4992803;28;20115;-78
2021/12/07 09:02:24;;;;;;;2.80;1.45;;;16.70;88.20;;;;;;4992661;28;20490;-78
2021/12/07 09:04:51;;;;;;;5.82;1.80;;;17.40;84.40;;;;;;4992719;28;20525;-79
2021/12/07 09:07:17;;;;;;;3.33;1.60;;;17.50;82.60;;;;;;4992673;28;20029;-78
2021/12/07 09:09:43;;;;;;;2.00;1.73;;;16.50;82.40;;;;;;4984695;28;20050;-78
2021/12/07 09:12:12;;;;;;;3.63;1.80;;;15.00;84.90;;;;;;4990135;28;20022;-77
2021/12/07 09:14:38;;;;;;;3.10;2.33;;;13.90;86.70;;;;;;4991553;28;20018;-77
2021/12/07 09:17:05;;;;;;;3.28;1.95;;;12.80;89.20;;;;;;4990303;28;20029;-78
2021/12/07 09:19:32;;;;;;;3.90;2.15;;;11.80;90.70;;;;;;4991878;28;20033;-79
2021/12/07 09:21:58;;;;;;;3.55;2.55;;;11.20;91.30;;;;;;4991318;28;20061;-78
2021/12/07 09:24:24;;;;;;;7.88;2.38;;;10.90;91.90;;;;;;4991494;28;20026;-79
2021/12/07 09:26:51;;;;;;;7.45;2.42;;;10.70;92.30;;;;;;4984973;28;20037;-79
2021/12/07 09:29:16;;;;;;;4.30;2.70;;;10.60;92.90;;;;;;4983542;28;20023;-79
2021/12/07 09:31:43;;;;;;;9.10;2.88;;;10.20;93.00;;;;;;4973998;28;20034;-79
2021/12/07 09:34:11;;;;;;;8.38;3.17;;;9.90;93.50;;;;;;4973750;28;20542;-79
2021/12/07 09:36:37;;;;;;;12.15;2.67;;;9.70;93.70;;;;;;4985239;28;20072;-79
2021/12/07 09:39:06;;;;;;;6.20;2.65;;;9.70;93.80;;;;;;4991507;28;20053;-80
2021/12/07 09:41:31;;;;;;;3.35;2.28;;;9.70;94.10;;;;;;4993186;28;20483;-78
2021/12/07 09:43:57;;;;;;;3.83;2.28;;;9.70;93.90;;;;;;4994418;28;20073;-79
2021/12/07 09:46:23;;;;;;;2.85;2.00;;;9.70;94.10;;;;;;4994220;28;20046;-78
2021/12/07 09:48:49;;;;;;;6.80;2.50;;;10.00;93.90;;;;;;4995256;28;20010;-77
2021/12/07 09:51:19;;;;;;;3.33;2.28;;;10.20;93.70;;;;;;4995278;28;20543;-78
2021/12/07 09:53:47;;;;;;;3.92;2.15;;;10.60;93.90;;;;;;4995608;28;20047;-78
2021/12/07 09:56:12;;;;;;;4.72;2.05;;;10.90;93.30;;;;;;4996846;28;20030;-79
2021/12/07 09:58:39;;;;;;;5.28;2.35;;;11.10;93.50;;;;;;4994137;28;20026;-78
2021/12/07 10:01:08;;;;;;;3.17;1.92;;;11.40;93.00;;;;;;4995938;28;20026;-79
2021/12/07 10:03:35;;;;;;;5.10;3.22;;;11.80;92.00;;;;;;4994147;28;20053;-78
2021/12/07 10:06:01;;;;;;;3.28;2.35;;;12.10;91.70;;;;;;4996130;28;20042;-78
2021/12/07 10:08:26;;;;;;;4.65;2.00;;;12.40;91.60;;;;;;4995561;28;20077;-78
2021/12/07 10:10:55;;;;;;;8.57;3.63;;;12.80;90.90;;;;;;4997344;28;20359;-78
2021/12/07 10:13:28;;;;;;;2.17;1.90;;;13.10;91.10;;;;;;4998328;28;20034;-78
2021/12/07 10:15:56;;;;;;;7.57;2.28;;;13.50;90.80;;;;;;4998489;28;20022;-79
2021/12/07 10:18:33;;;;;;;7.80;2.40;;;13.80;90.30;;;;;;4996310;28;20113;-76
2021/12/07 10:21:03;;;;;;;2.72;1.98;;;14.20;89.70;;;;;;4994350;28;20044;-78
2021/12/07 10:23:36;;;;;;;4.70;1.33;;;14.60;88.60;;;;;;4999637;28;20027;-78
2021/12/07 10:26:10;;;;;;;2.15;1.40;;;14.80;88.20;;;;;;4989407;28;20120;-78
2021/12/07 10:28:47;;;;;;;3.20;1.83;;;15.20;86.30;;;;;;4985571;28;20479;-78
2021/12/07 10:31:34;;;;;;;2.15;1.58;;;15.50;85.50;;;;;;5011901;28;20088;-79
2021/12/07 10:34:11;;;;;;;3.22;1.80;;;15.90;84.50;;;;;;4985695;28;20528;-77
2021/12/07 10:36:41;;;;;;;5.25;1.90;;;16.20;83.60;;;;;;4993086;28;20497;-77
2021/12/07 10:39:12;;;;;;;2.88;1.73;;;16.60;82.60;;;;;;4993542;28;20026;-76
2021/12/07 10:41:51;;;;;;;8.40;2.05;;;16.80;81.90;;;;;;4989416;28;20030;-77
2021/12/07 10:44:25;;;;;;;3.65;1.80;;;17.10;80.80;;;;;;4994844;28;20022;-77
2021/12/07 10:47:06;;;;;;;2.58;1.63;;;17.40;80.00;;;;;;4992120;28;20117;-76
2021/12/07 10:49:41;;;;;;;4.07;1.80;;;17.70;79.00;;;;;;4994560;28;20027;-75
2021/12/07 10:52:20;;;;;;;3.50;1.75;;;18.00;77.10;;;;;;4994501;28;20054;-76
2021/12/07 10:54:53;;;;;;;2.53;1.67;;;18.20;75.30;;;;;;4995276;28;20058;-76
2021/12/07 10:57:23;;;;;;;4.53;1.63;;;18.40;73.80;;;;;;4993176;28;20026;-76
2021/12/07 11:00:16;;;;;;;2.58;2.05;;;18.50;73.10;;;;;;4994879;28;20022;-77
2021/12/07 11:02:44;;;;;;;2.70;1.92;;;18.60;72.10;;;;;;4992920;28;20023;-76
2021/12/07 11:05:23;;;;;;;5.22;1.98;;;18.90;70.50;;;;;;4995127;28;20060;-77
2021/12/07 11:07:50;;;;;;;3.38;1.90;;;19.40;69.60;;;;;;4994295;28;20030;-77
2021/12/07 11:10:31;;;;;;;2.88;1.40;;;20.00;68.60;;;;;;4994540;28;20018;-77
2021/12/07 11:13:18;;;;;;;2.80;1.92;;;20.50;66.00;;;;;;4992826;28;20533;-77
2021/12/07 11:16:03;;;;;;;2.17;1.50;;;20.90;64.80;;;;;;4994314;28;20050;-78
2021/12/07 11:18:33;;;;;;;4.35;1.63;;;21.20;63.80;;;;;;4992951;28;20029;-78
2021/12/07 11:21:21;;;;;;;2.67;1.92;;;21.80;62.50;;;;;;4995890;28;20081;-76
2021/12/07 11:23:54;;;;;;;4.82;2.58;;;21.80;61.30;;;;;;4995437;28;20033;-77
2021/12/07 11:31:38;;;;;;;1.60;1.20;;;21.30;58.50;;;;;;4992596;28;20044;-76
2021/12/07 11:34:11;;;;;;;2.78;2.08;;;21.00;59.30;;;;;;4993074;28;20522;-77
2021/12/07 11:36:47;;;;;;;1.90;1.52;;;21.20;59.50;;;;;;4993733;28;20542;-77
2021/12/07 11:39:27;;;;;;;3.50;1.45;;;21.20;59.40;;;;;;4992319;28;20019;-78
2021/12/07 11:42:28;;;;;;;1.02;0.85;;;21.00;59.20;;;;;;4993897;28;20077;-77
2021/12/07 11:44:58;;;;;;;1.88;1.65;;;20.90;58.80;;;;;;4988957;28;20579;-78
2021/12/07 11:47:29;;;;;;;2.58;1.08;;;20.40;59.40;;;;;;4988134;28;20033;-76
2021/12/07 11:49:56;;;;;;;1.80;1.10;;;20.00;60.00;;;;;;4991437;28;20387;-78
2021/12/07 11:52:22;;;;;;;4.25;1.40;;;19.30;61.50;;;;;;4982662;28;20034;-76
2021/12/07 11:54:48;;;;;;;2.00;1.38;;;18.60;62.70;;;;;;4966018;28;20483;-76
2021/12/07 11:57:17;;;;;;;2.17;1.60;;;17.90;63.80;;;;;;4971273;28;20122;-76
2021/12/07 11:59:45;;;;;;;2.47;1.90;;;17.10;65.00;;;;;;4974847;28;20041;-76
2021/12/07 12:02:11;;;;;;;3.78;1.85;;;16.40;66.60;;;;;;4972347;28;20023;-77
2021/12/07 12:04:38;;;;;;;3.47;2.10;;;15.60;67.50;;;;;;4973718;28;20364;-77
2021/12/07 12:07:08;;;;;;;3.28;1.77;;;15.10;69.10;;;;;;4974671;28;20026;-78
2021/12/07 12:09:34;;;;;;;2.65;1.63;;;14.60;70.50;;;;;;4973776;28;20062;-78
2021/12/07 12:12:16;;;;;;;3.95;2.03;;;14.20;70.90;;;;;;4974425;28;20042;-78
2021/12/07 12:14:47;;;;;;;2.45;1.75;;;13.80;71.80;;;;;;4974758;28;20102;-74
2021/12/07 12:18:01;;;;;;;3.60;2.30;;;13.50;72.50;;;;;;4956386;28;20024;-78
2021/12/07 12:20:56;;;;;;;3.88;1.80;;;13.20;74.00;;;;;;4969082;28;20039;-78
2021/12/07 12:23:47;;;;;;;3.58;1.95;;;13.00;72.80;;;;;;4974687;28;20023;-76
2021/12/07 12:26:21;;;;;;;2.95;1.88;;;12.70;73.10;;;;;;4971951;28;20394;-75
2021/12/07 12:28:49;;;;;;;2.53;1.88;;;12.40;73.80;;;;;;4979505;28;20030;-75
2021/12/07 12:31:18;;;;;;;2.92;2.40;;;12.20;75.60;;;;;;4982672;28;20034;-76
2021/12/07 12:33:53;;;;;;;6.22;3.40;;;12.10;77.70;;;;;;4972081;28;20034;-76
2021/12/07 12:36:22;;;;;;;4.03;2.05;;;11.80;80.30;;;;;;4969703;28;20708;-76
2021/12/07 12:39:03;;;;;;;3.95;2.15;;;11.70;80.20;;;;;;4973039;28;20034;-76
2021/12/07 12:41:29;;;;;;;5.22;3.08;;;11.60;80.70;;;;;;4973655;28;20384;-78
2021/12/07 12:43:58;;;;;;;4.93;2.45;;;11.50;81.10;;;;;;4973100;28;20035;-76
2021/12/07 12:46:30;;;;;;;5.20;2.78;;;11.40;81.90;;;;;;4973344;28;20031;-77
2021/12/07 12:49:06;;;;;;;4.15;3.22;;;11.30;81.90;;;;;;4973310;28;20034;-79
2021/12/07 12:51:49;;;;;;;6.13;3.63;;;11.30;82.70;;;;;;4973116;28;20042;-77
2021/12/07 12:54:16;;;;;;;5.00;3.60;;;11.10;83.10;;;;;;4953061;28;20045;-77
2021/12/07 12:56:42;;;;;;;4.55;3.00;;;11.00;83.20;;;;;;4953080;28;20167;-77
2021/12/07 12:59:10;;;;;;;5.90;2.17;;;10.90;83.70;;;;;;4952857;28;20118;-78
2021/12/07 13:01:37;;;;;;;9.05;1.92;;;10.80;84.80;;;;;;4952264;28;20023;-77
2021/12/07 13:04:10;;;;;;;4.60;2.10;;;10.70;85.00;;;;;;4952984;29;20379;-77
2021/12/07 13:07:53;;;;;;;4.13;2.20;;;10.60;85.00;;;;;;4951147;29;20031;-77
2021/12/07 13:09:49;;;;;;;4.03;2.30;;;10.50;85.40;;;;;;4942924;28;20039;-78
2021/12/07 13:12:24;;;;;;;3.17;2.00;;;10.40;86.10;;;;;;4952283;28;20488;-78
2021/12/07 13:14:50;;;;;;;2.03;1.67;;;10.30;85.30;;;;;;4951056;28;20039;-78
2021/12/07 13:17:20;;;;;;;3.03;1.95;;;10.30;86.20;;;;;;4951735;29;20562;-78
2021/12/07 13:20:14;;;;;;;2.80;1.88;;;10.20;87.10;;;;;;4952363;28;20019;-78
2021/12/07 13:22:51;;;;;;;2.47;1.70;;;10.10;87.50;;;;;;4951312;29;20035;-78
2021/12/07 13:25:23;;;;;;;9.82;2.08;;;10.10;88.40;;;;;;4951982;29;20038;-77
2021/12/07 13:28:11;;;;;;;7.47;3.05;;;10.00;89.00;;;;;;4951556;29;20027;-77
2021/12/07 13:30:46;;;;;;;9.95;2.45;;;10.00;89.80;;;;;;4950396;28;20055;-78
2021/12/07 13:33:13;;;;;;;4.15;2.38;;;9.90;89.70;;;;;;4951738;28;20118;-77
2021/12/07 13:35:39;;;;;;;6.00;2.47;;;9.90;90.10;;;;;;4951694;29;20023;-77
2021/12/07 13:38:41;;;;;;;6.18;2.20;;;9.90;90.30;;;;;;4950461;29;20027;-78
2021/12/07 13:41:16;;;;;;;4.22;2.17;;;9.80;90.40;;;;;;4944504;28;20062;-78
2021/12/07 13:43:46;;;;;;;2.78;2.05;;;9.80;90.70;;;;;;4965223;28;20431;-77
2021/12/07 13:46:15;;;;;;;3.42;2.13;;;9.80;90.70;;;;;;4952325;28;20423;-78
2021/12/07 13:48:43;;;;;;;2.28;2.00;;;9.80;90.70;;;;;;4967903;28;20430;-77
2021/12/07 13:51:11;;;;;;;6.18;2.40;;;9.70;90.70;;;;;;4951761;28;20066;-78
2021/12/07 13:53:38;;;;;;;5.20;2.40;;;9.60;91.10;;;;;;4966166;28;20483;-78
2021/12/07 13:56:05;;;;;;;3.72;1.83;;;9.50;91.20;;;;;;4969628;28;20034;-78
2021/12/07 13:58:56;;;;;;;3.30;1.83;;;9.50;91.20;;;;;;4973312;28;20046;-78
2021/12/07 14:01:27;;;;;;;4.30;2.70;;;9.40;91.10;;;;;;4952805;29;20035;-77
2021/12/07 14:03:53;;;;;;;7.75;2.42;;;9.40;91.50;;;;;;4952920;28;20403;-78
2021/12/07 14:06:19;;;;;;;4.75;2.60;;;9.40;91.40;;;;;;4967472;28;20063;-78
2021/12/07 14:08:45;;;;;;;7.97;2.90;;;9.40;91.70;;;;;;4967199;28;20597;-77
2021/12/07 14:11:14;;;;;;;5.20;2.80;;;9.40;92.30;;;;;;4965470;28;20150;-77
2021/12/07 14:13:41;;;;;;;10.18;4.78;;;9.30;92.50;;;;;;4971005;28;20019;-76
2021/12/07 14:16:08;;;;;;;5.22;3.15;;;9.30;92.60;;;;;;4959261;28;20372;-76
2021/12/07 14:18:35;;;;;;;5.72;3.63;;;9.30;92.90;;;;;;4958546;28;20036;-77
2021/12/07 14:21:02;;;;;;;5.43;3.00;;;9.20;93.20;;;;;;4951475;28;20361;-75
2021/12/07 14:23:29;;;;;;;11.80;3.22;;;9.20;93.10;;;;;;4952728;28;20480;-76
2021/12/07 14:26:12;;;;;;;5.93;2.80;;;9.20;93.20;;;;;;4952854;28;20043;-77
2021/12/07 14:28:42;;;;;;;4.25;2.63;;;9.10;93.50;;;;;;4970050;28;20031;-77
2021/12/07 14:31:12;;;;;;;3.72;2.58;;;9.10;93.50;;;;;;4963707;28;20046;-77
2021/12/07 14:33:45;;;;;;;4.20;2.42;;;9.00;93.60;;;;;;4964252;28;20027;-77
2021/12/07 14:36:12;;;;;;;4.82;3.13;;;9.00;93.80;;;;;;4963388;28;20442;-76
2021/12/07 14:38:38;;;;;;;4.72;3.08;;;8.90;93.90;;;;;;4969110;28;20107;-78
2021/12/07 14:41:11;;;;;;;7.47;4.40;;;8.90;94.20;;;;;;4982282;28;20543;-77
2021/12/07 14:43:38;;;;;;;6.40;3.30;;;8.80;95.00;;;;;;4970494;28;20463;-78
2021/12/07 14:46:07;;;;;;;8.35;3.88;;;8.80;94.80;;;;;;4965246;28;20110;-77